Time;durP1;ratioP1;P1;durP2;ratioP2;P2;SDS_P1;SDS_P2;PMS_P1;PMS_P2;Temp;Humidity;BMP_temperature;BMP_pressure;BME280_temperature;BME280_humidity;BME280_pressure;Samples;Min_cycle;Max_cycle;Signal;HPM_P1;HPM_P2
2022/02/15 00:00:07;;;;;;;;;;;;;;;;;;5013381;28;19996;-52
2022/02/15 00:02:32;;;;;;;;;;;;;;;;;;5018852;28;19932;-51
2022/02/15 00:04:58;;;;;;;;;;;;;;;;;;5015830;28;19935;-52
2022/02/15 00:07:23;;;;;;;;;;;;;;;;;;5013836;28;20337;-49
2022/02/15 00:09:48;;;;;;;;;;;;;;;;;;5014386;28;19913;-51
2022/02/15 00:12:13;;;;;;;;;;;;;;;;;;5015465;28;20043;-45
2022/02/15 00:14:38;;;;;;;;;;;;;;;;;;5017949;28;19909;-49
2022/02/15 00:17:03;;;;;;;;;;;;;;;;;;5016898;28;19940;-51
2022/02/15 00:19:28;;;;;;;;;;;;;;;;;;5015744;28;20402;-49
2022/02/15 00:21:55;;;;;;;;;;;;;;;;;;5016355;28;20007;-51
2022/02/15 00:24:20;;;;;;;;;;;;;;;;;;5018307;28;19960;-51
2022/02/15 00:26:45;;;;;;;;;;;;;;;;;;5018023;28;19945;-51
2022/02/15 00:29:10;;;;;;;;;;;;;;;;;;5015209;28;19913;-50
2022/02/15 00:31:35;;;;;;;;;;;;;;;;;;5020998;28;20314;-49
2022/02/15 00:34:01;;;;;;;;;;;;;;;;;;5016830;28;19916;-50
2022/02/15 00:36:26;;;;;;;;;;;;;;;;;;5019367;28;19909;-49
2022/02/15 00:38:51;;;;;;;;;;;;;;;;;;5015266;28;20008;-52
2022/02/15 00:41:16;;;;;;;;;;;;;;;;;;5015717;28;20375;-49
2022/02/15 00:43:41;;;;;;;;;;;;;;;;;;5014407;28;19999;-51
2022/02/15 00:46:06;;;;;;;;;;;;;;;;;;5014849;28;20437;-49
2022/02/15 00:48:32;;;;;;;;;;;;;;;;;;5014476;28;19979;-52
2022/02/15 00:50:57;;;;;;;;;;;;;;;;;;5016628;28;19917;-53
2022/02/15 00:53:22;;;;;;;;;;;;;;;;;;5012309;28;20416;-50
2022/02/15 00:55:47;;;;;;;;;;;;;;;;;;5017773;28;20023;-50
2022/02/15 00:58:12;;;;;;;;;;;;;;;;;;5015894;28;19909;-50
2022/02/15 01:00:37;;;;;;;;;;;;;;;;;;5017467;28;19931;-51
2022/02/15 01:03:02;;;;;;;;;;;;;;;;;;5016671;28;19913;-53
2022/02/15 01:05:28;;;;;;;;;;;;;;;;;;5014615;28;19917;-52
2022/02/15 01:07:53;;;;;;;;;;;;;;;;;;5014158;28;19913;-52
2022/02/15 01:10:20;;;;;;;;;;;;;;;;;;5013430;28;20617;-48
2022/02/15 01:12:45;;;;;;;;;;;;;;;;;;5016392;28;20668;-48
2022/02/15 01:15:10;;;;;;;;;;;;;;;;;;5014794;28;20017;-52
2022/02/15 01:17:35;;;;;;;;;;;;;;;;;;5014323;28;19916;-52
2022/02/15 01:20:00;;;;;;;;;;;;;;;;;;5018420;28;20364;-53
2022/02/15 01:22:26;;;;;;;;;;;;;;;;;;5014695;28;19999;-52
2022/02/15 01:24:51;;;;;;;;;;;;;;;;;;5014227;28;19913;-51
2022/02/15 01:27:16;;;;;;;;;;;;;;;;;;5014518;28;20004;-54
2022/02/15 01:29:41;;;;;;;;;;;;;;;;;;5010800;28;19978;-52
2022/02/15 01:32:06;;;;;;;;;;;;;;;;;;5014097;28;19980;-51
2022/02/15 01:34:32;;;;;;;;;;;;;;;;;;5016204;28;20290;-55
2022/02/15 01:36:57;;;;;;;;;;;;;;;;;;5010959;28;19947;-54
2022/02/15 01:39:22;;;;;;;;;;;;;;;;;;5013137;28;19909;-51
2022/02/15 01:41:47;;;;;;;;;;;;;;;;;;5016789;28;19909;-51
2022/02/15 01:44:12;;;;;;;;;;;;;;;;;;5016326;28;20323;-52
2022/02/15 01:46:38;;;;;;;;;;;;;;;;;;5018005;28;19913;-53
2022/02/15 01:49:03;;;;;;;;;;;;;;;;;;5017687;28;20560;-51
2022/02/15 01:51:28;;;;;;;;;;;;;;;;;;5014652;28;20484;-51
2022/02/15 01:53:54;;;;;;;;;;;;;;;;;;5011044;28;19917;-50
2022/02/15 01:56:19;;;;;;;;;;;;;;;;;;5012354;28;19913;-49
2022/02/15 01:58:44;;;;;;;;;;;;;;;;;;5012115;28;19931;-49
2022/02/15 02:01:09;;;;;;;;;;;;;;;;;;5011454;28;19914;-53
2022/02/15 02:03:34;;;;;;;;;;;;;;;;;;5012621;28;20414;-50
2022/02/15 02:05:59;;;;;;;;;;;;;;;;;;5012695;28;19996;-51
2022/02/15 02:08:25;;;;;;;;;;;;;;;;;;5014649;28;19921;-50
2022/02/15 02:10:50;;;;;;;;;;;;;;;;;;5009520;28;20337;-52
2022/02/15 02:13:15;;;;;;;;;;;;;;;;;;5013670;28;19916;-50
2022/02/15 02:15:40;;;;;;;;;;;;;;;;;;5013844;28;20158;-51
2022/02/15 02:18:05;;;;;;;;;;;;;;;;;;5015243;28;19914;-52
2022/02/15 02:20:31;;;;;;;;;;;;;;;;;;5014230;28;19913;-52
2022/02/15 02:22:56;;;;;;;;;;;;;;;;;;5012217;28;19920;-49
2022/02/15 02:25:21;;;;;;;;;;;;;;;;;;5012112;28;20007;-53
2022/02/15 02:27:46;;;;;;;;;;;;;;;;;;5013270;28;19913;-50
2022/02/15 02:30:11;;;;;;;;;;;;;;;;;;5012782;28;19916;-49
2022/02/15 02:32:36;;;;;;;;;;;;;;;;;;5012108;28;20036;-50
2022/02/15 02:35:02;;;;;;;;;;;;;;;;;;5013514;28;19968;-52
2022/02/15 02:37:27;;;;;;;;;;;;;;;;;;5012159;28;19917;-51
2022/02/15 02:39:52;;;;;;;;;;;;;;;;;;5013655;28;19913;-50
2022/02/15 02:42:17;;;;;;;;;;;;;;;;;;5014551;28;19909;-53
2022/02/15 02:44:42;;;;;;;;;;;;;;;;;;5015494;28;20406;-51
2022/02/15 02:47:08;;;;;;;;;;;;;;;;;;5014311;28;19966;-52
2022/02/15 02:49:33;;;;;;;;;;;;;;;;;;5012652;28;19921;-51
2022/02/15 02:51:58;;;;;;;;;;;;;;;;;;5011736;28;20554;-52
2022/02/15 02:54:24;;;;;;;;;;;;;;;;;;5016768;28;19990;-51
2022/02/15 02:56:49;;;;;;;;;;;;;;;;;;5015443;28;20705;-51
2022/02/15 02:59:14;;;;;;;;;;;;;;;;;;5017256;28;20380;-53
2022/02/15 03:01:39;;;;;;;;;;;;;;;;;;5014753;28;19919;-50
2022/02/15 03:04:04;;;;;;;;;;;;;;;;;;5018453;28;20106;-53
2022/02/15 03:06:30;;;;;;;;;;;;;;;;;;5014555;28;20454;-53
2022/02/15 03:08:55;;;;;;;;;;;;;;;;;;5011961;28;19913;-52
2022/02/15 03:11:20;;;;;;;;;;;;;;;;;;5011526;28;19916;-49
2022/02/15 03:13:45;;;;;;;;;;;;;;;;;;5010988;28;19913;-52
2022/02/15 03:16:10;;;;;;;;;;;;;;;;;;5013074;28;20024;-47
2022/02/15 03:18:35;;;;;;;;;;;;;;;;;;5013124;28;19913;-54
2022/02/15 03:21:01;;;;;;;;;;;;;;;;;;5014026;28;19912;-50
2022/02/15 03:23:26;;;;;;;;;;;;;;;;;;5012375;28;20390;-53
2022/02/15 03:25:51;;;;;;;;;;;;;;;;;;5012958;28;20000;-52
2022/02/15 03:28:16;;;;;;;;;;;;;;;;;;5009371;28;20337;-50
2022/02/15 03:30:41;;;;;;;;;;;;;;;;;;5010945;28;20004;-53
2022/02/15 03:33:06;;;;;;;;;;;;;;;;;;5015899;28;19994;-53
2022/02/15 03:35:32;;;;;;;;;;;;;;;;;;5013971;28;20418;-51
2022/02/15 03:37:57;;;;;;;;;;;;;;;;;;5010931;28;19914;-49
2022/02/15 03:40:22;;;;;;;;;;;;;;;;;;5011299;28;19915;-52
2022/02/15 03:43:05;;;;;;;;;;;;;;;;;;5010292;28;20339;-51
2022/02/15 03:45:31;;;;;;;;;;;;;;;;;;5012196;28;20117;-52
2022/02/15 03:47:56;;;;;;;;;;;;;;;;;;5012315;28;20450;-49
2022/02/15 03:50:21;;;;;;;;;;;;;;;;;;5010485;28;19931;-54
2022/02/15 03:52:46;;;;;;;;;;;;;;;;;;5011231;28;19913;-47
2022/02/15 03:55:11;;;;;;;;;;;;;;;;;;5015491;28;19915;-50
2022/02/15 03:57:36;;;;;;;;;;;;;;;;;;5010624;28;19909;-52
2022/02/15 04:00:02;;;;;;;;;;;;;;;;;;5016861;28;20425;-51
2022/02/15 04:02:27;;;;;;;;;;;;;;;;;;5012498;28;19913;-49
2022/02/15 04:04:52;;;;;;;;;;;;;;;;;;5012443;28;19932;-53
2022/02/15 04:07:17;;;;;;;;;;;;;;;;;;5012336;28;20056;-48
2022/02/15 04:09:42;;;;;;;;;;;;;;;;;;5010946;28;20263;-53
2022/02/15 04:12:07;;;;;;;;;;;;;;;;;;5013529;28;19932;-53
2022/02/15 04:14:33;;;;;;;;;;;;;;;;;;5014152;28;19937;-52
2022/02/15 04:16:58;;;;;;;;;;;;;;;;;;5017165;28;20395;-49
2022/02/15 04:19:23;;;;;;;;;;;;;;;;;;5016635;28;19905;-53
2022/02/15 04:21:48;;;;;;;;;;;;;;;;;;5012741;28;20290;-49
2022/02/15 04:24:13;;;;;;;;;;;;;;;;;;5017223;28;19988;-47
2022/02/15 04:26:39;;;;;;;;;;;;;;;;;;5013966;28;19910;-51
2022/02/15 04:29:04;;;;;;;;;;;;;;;;;;5014318;28;20315;-52
2022/02/15 04:31:29;;;;;;;;;;;;;;;;;;5012626;28;19909;-50
2022/02/15 04:33:54;;;;;;;;;;;;;;;;;;5015892;28;19967;-47
2022/02/15 04:36:19;;;;;;;;;;;;;;;;;;5019214;28;20199;-46
2022/02/15 04:38:44;;;;;;;;;;;;;;;;;;5017098;28;20782;-52
2022/02/15 04:41:10;;;;;;;;;;;;;;;;;;5017011;28;20004;-51
2022/02/15 04:43:35;;;;;;;;;;;;;;;;;;5018109;28;19940;-51
2022/02/15 04:46:00;;;;;;;;;;;;;;;;;;5018353;28;19920;-51
2022/02/15 04:48:25;;;;;;;;;;;;;;;;;;5015871;28;19920;-51
2022/02/15 04:50:50;;;;;;;;;;;;;;;;;;5016752;28;20012;-50
2022/02/15 04:53:16;;;;;;;;;;;;;;;;;;5020540;28;19952;-52
2022/02/15 04:55:42;;;;;;;;;;;;;;;;;;5015527;28;19905;-51
2022/02/15 04:58:07;;;;;;;;;;;;;;;;;;5016609;28;19988;-49
2022/02/15 05:00:32;;;;;;;;;;;;;;;;;;5016139;28;19917;-51
2022/02/15 05:02:57;;;;;;;;;;;;;;;;;;5013798;28;19909;-50
2022/02/15 05:05:22;;;;;;;;;;;;;;;;;;5015528;28;20497;-49
2022/02/15 05:07:47;;;;;;;;;;;;;;;;;;5016806;28;19906;-53
2022/02/15 05:10:12;;;;;;;;;;;;;;;;;;5017899;28;19915;-49
2022/02/15 05:12:38;;;;;;;;;;;;;;;;;;5016451;28;20505;-52
2022/02/15 05:15:03;;;;;;;;;;;;;;;;;;5018711;28;19929;-51
2022/02/15 05:17:28;;;;;;;;;;;;;;;;;;5018451;28;19912;-52
2022/02/15 05:19:53;;;;;;;;;;;;;;;;;;5016737;28;19959;-52
2022/02/15 05:22:19;;;;;;;;;;;;;;;;;;5018400;28;20483;-51
2022/02/15 05:24:44;;;;;;;;;;;;;;;;;;5016087;28;19910;-53
2022/02/15 05:27:09;;;;;;;;;;;;;;;;;;5018297;28;20515;-52
2022/02/15 05:29:34;;;;;;;;;;;;;;;;;;5016125;28;19909;-51
2022/02/15 05:31:59;;;;;;;;;;;;;;;;;;5017485;28;20318;-53
2022/02/15 05:34:25;;;;;;;;;;;;;;;;;;5016857;28;19909;-48
2022/02/15 05:36:50;;;;;;;;;;;;;;;;;;5018313;28;20472;-53
2022/02/15 05:39:16;;;;;;;;;;;;;;;;;;5016953;28;19909;-51
2022/02/15 05:41:42;;;;;;;;;;;;;;;;;;5014975;28;19913;-48
2022/02/15 05:44:07;;;;;;;;;;;;;;;;;;5016546;28;19913;-50
2022/02/15 05:46:32;;;;;;;;;;;;;;;;;;5018541;28;19958;-51
2022/02/15 05:48:57;;;;;;;;;;;;;;;;;;5016791;28;20215;-52
2022/02/15 05:51:23;;;;;;;;;;;;;;;;;;5018870;28;20036;-51
2022/02/15 05:53:49;;;;;;;;;;;;;;;;;;5015324;28;19934;-48
2022/02/15 05:56:14;;;;;;;;;;;;;;;;;;5018455;28;20367;-53
2022/02/15 05:58:39;;;;;;;;;;;;;;;;;;5016033;28;20377;-51
2022/02/15 06:01:06;;;;;;;;;;;;;;;;;;5019205;28;20022;-51
2022/02/15 06:06:15;;;;;;;;;;;;;;;;;;5016591;28;19948;-49
2022/02/15 06:08:40;;;;;;;;;;;;;;;;;;5018150;28;19944;-50
2022/02/15 06:11:06;;;;;;;;;;;;;;;;;;5018970;28;19962;-50
2022/02/15 06:13:31;;;;;;;;;;;;;;;;;;5018665;28;20258;-51
2022/02/15 06:15:56;;;;;;;;;;;;;;;;;;5016943;28;20014;-54
2022/02/15 06:18:21;;;;;;;;;;;;;;;;;;5018336;28;19909;-53
2022/02/15 06:20:46;;;;;;;;;;;;;;;;;;5014021;28;19991;-52
2022/02/15 06:23:12;;;;;;;;;;;;;;;;;;5018468;28;19999;-53
2022/02/15 06:25:37;;;;;;;;;;;;;;;;;;5017906;28;19925;-52
2022/02/15 06:28:02;;;;;;;;;;;;;;;;;;5018022;28;19995;-52
2022/02/15 06:30:27;;;;;;;;;;;;;;;;;;5016759;28;19941;-50
2022/02/15 06:32:52;;;;;;;;;;;;;;;;;;5017017;28;20374;-51
2022/02/15 06:35:17;;;;;;;;;;;;;;;;;;5019697;28;19913;-52
2022/02/15 06:37:42;;;;;;;;;;;;;;;;;;5014796;28;19910;-49
2022/02/15 06:40:08;;;;;;;;;;;;;;;;;;5016054;28;20440;-49
2022/02/15 06:42:33;;;;;;;;;;;;;;;;;;5014835;28;19980;-50
2022/02/15 06:44:59;;;;;;;;;;;;;;;;;;5015482;28;19905;-52
2022/02/15 06:47:24;;;;;;;;;;;;;;;;;;5013530;28;19917;-49
2022/02/15 06:49:49;;;;;;;;;;;;;;;;;;5017540;28;19931;-46
2022/02/15 06:52:14;;;;;;;;;;;;;;;;;;5013446;28;19917;-46
2022/02/15 06:54:40;;;;;;;;;;;;;;;;;;5013399;28;19944;-48
2022/02/15 06:57:05;;;;;;;;;;;;;;;;;;5012362;28;20351;-47
2022/02/15 06:59:30;;;;;;;;;;;;;;;;;;5018354;28;19943;-51
2022/02/15 07:01:55;;;;;;;;;;;;;;;;;;5015085;28;19956;-42
2022/02/15 07:04:20;;;;;;;;;;;;;;;;;;5017134;28;20392;-41
2022/02/15 07:06:46;;;;;;;;;;;;;;;;;;5016864;28;19916;-41
2022/02/15 07:09:11;;;;;;;;;;;;;;;;;;5013250;28;20437;-45
2022/02/15 07:11:36;;;;;;;;;;;;;;;;;;5014275;28;19956;-44
2022/02/15 07:14:01;;;;;;;;;;;;;;;;;;5016807;28;19905;-42
2022/02/15 07:16:26;;;;;;;;;;;;;;;;;;5013468;28;19909;-43
2022/02/15 07:18:52;;;;;;;;;;;;;;;;;;5014808;28;19905;-43
2022/02/15 07:21:17;;;;;;;;;;;;;;;;;;5011453;28;20020;-43
2022/02/15 07:23:42;;;;;;;;;;;;;;;;;;5017164;28;19913;-41
2022/02/15 07:26:07;;;;;;;;;;;;;;;;;;5015720;28;19959;-43
2022/02/15 07:28:33;;;;;;;;;;;;;;;;;;5011358;28;19912;-41
2022/02/15 07:30:58;;;;;;;;;;;;;;;;;;5011844;28;19975;-44
2022/02/15 07:33:23;;;;;;;;;;;;;;;;;;5014992;28;19963;-42
2022/02/15 07:35:48;;;;;;;;;;;;;;;;;;5012298;28;19913;-40
2022/02/15 07:38:14;;;;;;;;;;;;;;;;;;5011626;28;20650;-43
2022/02/15 07:40:39;;;;;;;;;;;;;;;;;;5012006;28;20593;-41
2022/02/15 07:43:04;;;;;;;;;;;;;;;;;;5012822;28;19928;-40
2022/02/15 07:45:29;;;;;;;;;;;;;;;;;;5014227;28;20405;-41
2022/02/15 07:47:54;;;;;;;;;;;;;;;;;;5013161;28;19920;-43
2022/02/15 07:50:20;;;;;;;;;;;;;;;;;;5010497;28;19952;-41
2022/02/15 07:52:45;;;;;;;;;;;;;;;;;;5010839;28;19917;-42
2022/02/15 07:55:10;;;;;;;;;;;;;;;;;;5011390;28;19910;-43
2022/02/15 07:57:35;;;;;;;;;;;;;;;;;;5009024;28;20429;-42
2022/02/15 08:00:00;;;;;;;;;;;;;;;;;;5013486;28;19909;-44
2022/02/15 08:02:25;;;;;;;;;;;;;;;;;;5010727;28;19929;-44
2022/02/15 08:04:50;;;;;;;;;;;;;;;;;;5011625;28;19933;-42
2022/02/15 08:07:16;;;;;;;;;;;;;;;;;;5012244;28;19964;-43
2022/02/15 08:09:41;;;;;;;;;;;;;;;;;;5013407;28;20430;-41
2022/02/15 08:12:11;;;;;;;;;;;;;;;;;;5014529;28;19913;-41
2022/02/15 08:14:36;;;;;;;;;;;;;;;;;;5015952;28;20015;-42
2022/02/15 08:17:01;;;;;;;;;;;;;;;;;;5014796;28;19905;-41
2022/02/15 08:19:27;;;;;;;;;;;;;;;;;;5015488;28;19920;-41
2022/02/15 08:21:54;;;;;;;;;;;;;;;;;;5014443;28;20629;-40
2022/02/15 08:24:19;;;;;;;;;;;;;;;;;;5012441;28;20175;-45
2022/02/15 08:26:44;;;;;;;;;;;;;;;;;;5013155;28;20378;-44
2022/02/15 08:29:12;;;;;;;;;;;;;;;;;;5012899;28;20004;-41
2022/02/15 08:31:37;;;;;;;;;;;;;;;;;;5015619;28;19913;-40
2022/02/15 08:34:02;;;;;;;;;;;;;;;;;;5015210;28;20382;-41
2022/02/15 08:36:27;;;;;;;;;;;;;;;;;;5017834;28;19951;-41
2022/02/15 08:38:52;;;;;;;;;;;;;;;;;;5015742;28;20377;-42
2022/02/15 08:41:17;;;;;;;;;;;;;;;;;;5012590;28;19919;-42
2022/02/15 08:43:43;;;;;;;;;;;;;;;;;;5014914;28;19948;-40
2022/02/15 08:46:08;;;;;;;;;;;;;;;;;;5014972;28;20698;-40
2022/02/15 08:48:33;;;;;;;;;;;;;;;;;;5012578;28;19924;-42
2022/02/15 08:50:58;;;;;;;;;;;;;;;;;;5009876;28;19909;-44
2022/02/15 08:53:23;;;;;;;;;;;;;;;;;;5016979;28;20289;-41
2022/02/15 08:55:48;;;;;;;;;;;;;;;;;;5016984;28;19909;-41
2022/02/15 08:58:14;;;;;;;;;;;;;;;;;;5018431;28;19909;-41
2022/02/15 09:00:39;;;;;;;;;;;;;;;;;;5016528;28;20294;-44
2022/02/15 09:03:04;;;;;;;;;;;;;;;;;;5013678;28;19909;-46
2022/02/15 09:05:29;;;;;;;;;;;;;;;;;;5015171;28;19932;-42
2022/02/15 09:07:54;;;;;;;;;;;;;;;;;;5014653;28;19962;-44
2022/02/15 09:10:19;;;;;;;;;;;;;;;;;;5015859;28;19940;-43
2022/02/15 09:12:45;;;;;;;;;;;;;;;;;;5018317;28;20086;-46
2022/02/15 09:15:13;;;;;;;;;;;;;;;;;;5016285;28;19917;-45
2022/02/15 09:17:39;;;;;;;;;;;;;;;;;;5016794;28;19910;-46
2022/02/15 09:20:04;;;;;;;;;;;;;;;;;;5013873;28;19909;-44
2022/02/15 09:22:29;;;;;;;;;;;;;;;;;;5013921;28;19963;-42
2022/02/15 09:24:54;;;;;;;;;;;;;;;;;;5014323;28;19909;-47
2022/02/15 09:27:20;;;;;;;;;;;;;;;;;;5014237;28;19913;-44
2022/02/15 09:29:45;;;;;;;;;;;;;;;;;;5015264;28;19996;-46
2022/02/15 09:32:10;;;;;;;;;;;;;;;;;;5015388;28;20543;-45
2022/02/15 09:34:35;;;;;;;;;;;;;;;;;;5015412;28;19962;-44
2022/02/15 09:37:01;;;;;;;;;;;;;;;;;;5015664;28;19992;-46
2022/02/15 09:39:26;;;;;;;;;;;;;;;;;;5017173;28;20290;-41
2022/02/15 09:41:51;;;;;;;;;;;;;;;;;;5013456;28;20287;-42
2022/02/15 09:44:16;;;;;;;;;;;;;;;;;;5017301;28;19959;-44
2022/02/15 09:46:42;;;;;;;;;;;;;;;;;;5015609;28;20000;-41
2022/02/15 09:49:48;;;;;;;;;;;;;;;;;;5017295;28;20426;-42
2022/02/15 09:51:52;;;;;;;;;;;;;;;;;;5013219;28;19913;-46
2022/02/15 09:54:17;;;;;;;;;;;;;;;;;;5012158;28;19910;-42
2022/02/15 09:56:42;;;;;;;;;;;;;;;;;;5012318;28;20385;-41
2022/02/15 09:59:07;;;;;;;;;;;;;;;;;;5013579;28;19909;-40
2022/02/15 10:01:33;;;;;;;;;;;;;;;;;;5016965;28;19913;-42
2022/02/15 10:04:01;;;;;;;;;;;;;;;;;;5015699;28;20362;-44
2022/02/15 10:06:26;;;;;;;;;;;;;;;;;;5012956;28;19920;-41
2022/02/15 10:08:51;;;;;;;;;;;;;;;;;;5013412;28;19910;-49
2022/02/15 10:11:16;;;;;;;;;;;;;;;;;;5014131;28;19963;-48
2022/02/15 10:13:42;;;;;;;;;;;;;;;;;;5017077;28;19933;-43
2022/02/15 10:16:07;;;;;;;;;;;;;;;;;;5014553;28;19909;-48
2022/02/15 10:18:35;;;;;;;;;;;;;;;;;;5014347;28;19909;-42
2022/02/15 10:21:00;;;;;;;;;;;;;;;;;;5013440;28;20283;-43
2022/02/15 10:23:26;;;;;;;;;;;;;;;;;;5013893;28;20358;-42
2022/02/15 10:25:51;;;;;;;;;;;;;;;;;;5013340;28;19952;-44
2022/02/15 10:28:16;;;;;;;;;;;;;;;;;;5013351;28;19924;-42
2022/02/15 10:30:41;;;;;;;;;;;;;;;;;;5012152;28;19909;-43
2022/02/15 10:33:06;;;;;;;;;;;;;;;;;;5013863;28;19913;-48
2022/02/15 10:35:31;;;;;;;;;;;;;;;;;;5014984;28;20262;-39
2022/02/15 10:37:57;;;;;;;;;;;;;;;;;;5013398;28;20008;-41
2022/02/15 10:40:22;;;;;;;;;;;;;;;;;;5015036;28;19909;-40
2022/02/15 10:42:47;;;;;;;;;;;;;;;;;;5014238;28;19909;-43
2022/02/15 10:45:12;;;;;;;;;;;;;;;;;;5012319;28;19963;-42
2022/02/15 10:47:38;;;;;;;;;;;;;;;;;;5012070;28;20608;-44
2022/02/15 10:50:03;;;;;;;;;;;;;;;;;;5012538;28;19979;-44
2022/02/15 10:52:28;;;;;;;;;;;;;;;;;;5015644;28;20249;-44
2022/02/15 10:54:54;;;;;;;;;;;;;;;;;;5012648;28;20753;-41
2022/02/15 10:57:19;;;;;;;;;;;;;;;;;;5015338;28;20343;-42
2022/02/15 10:59:44;;;;;;;;;;;;;;;;;;5010256;28;19909;-44
2022/02/15 11:02:09;;;;;;;;;;;;;;;;;;5013211;28;19980;-42
2022/02/15 11:04:35;;;;;;;;;;;;;;;;;;5013671;28;19909;-40
2022/02/15 11:07:06;;;;;;;;;;;;;;;;;;5012940;28;19924;-45
2022/02/15 11:09:31;;;;;;;;;;;;;;;;;;5013694;28;20019;-42
2022/02/15 11:11:56;;;;;;;;;;;;;;;;;;5014911;28;19915;-40
2022/02/15 11:14:21;;;;;;;;;;;;;;;;;;5012213;28;19955;-41
2022/02/15 11:16:46;;;;;;;;;;;;;;;;;;5013933;28;20556;-40
2022/02/15 11:19:13;;;;;;;;;;;;;;;;;;5013191;28;19910;-42
2022/02/15 11:21:38;;;;;;;;;;;;;;;;;;5010603;28;20275;-41
2022/02/15 11:24:04;;;;;;;;;;;;;;;;;;5013982;28;19916;-40
2022/02/15 11:26:29;;;;;;;;;;;;;;;;;;5012211;28;20011;-41
2022/02/15 11:28:56;;;;;;;;;;;;;;;;;;5011470;28;19913;-39
2022/02/15 11:31:21;;;;;;;;;;;;;;;;;;5013432;28;19917;-40
2022/02/15 11:33:46;;;;;;;;;;;;;;;;;;5012317;28;19913;-41
2022/02/15 11:36:13;;;;;;;;;;;;;;;;;;5011230;28;19909;-40
2022/02/15 11:38:38;;;;;;;;;;;;;;;;;;5012766;28;19913;-41
2022/02/15 11:41:04;;;;;;;;;;;;;;;;;;5012314;28;19909;-40
2022/02/15 11:43:29;;;;;;;;;;;;;;;;;;5013317;28;19917;-40
2022/02/15 11:45:54;;;;;;;;;;;;;;;;;;5015669;28;19917;-40
2022/02/15 11:48:19;;;;;;;;;;;;;;;;;;5019921;28;19909;-40
2022/02/15 11:50:44;;;;;;;;;;;;;;;;;;5018502;28;20000;-40
2022/02/15 11:53:10;;;;;;;;;;;;;;;;;;5015570;28;19980;-41
2022/02/15 11:55:35;;;;;;;;;;;;;;;;;;5017779;28;20026;-41
2022/02/15 11:58:00;;;;;;;;;;;;;;;;;;5019712;28;19940;-40
2022/02/15 12:00:25;;;;;;;;;;;;;;;;;;5015170;28;19995;-39
2022/02/15 12:02:51;;;;;;;;;;;;;;;;;;5016678;28;20261;-43
2022/02/15 12:05:16;;;;;;;;;;;;;;;;;;5015407;28;19909;-40
2022/02/15 12:07:43;;;;;;;;;;;;;;;;;;5017199;28;19929;-41
2022/02/15 12:10:08;;;;;;;;;;;;;;;;;;5018560;28;19920;-46
2022/02/15 12:12:33;;;;;;;;;;;;;;;;;;5014278;28;19909;-41
2022/02/15 12:15:00;;;;;;;;;;;;;;;;;;5017329;28;19909;-42
2022/02/15 12:17:25;;;;;;;;;;;;;;;;;;5014832;28;19909;-41
2022/02/15 12:19:50;;;;;;;;;;;;;;;;;;5012934;28;20286;-40
2022/02/15 12:22:15;;;;;;;;;;;;;;;;;;5017400;28;20294;-40
2022/02/15 12:24:41;;;;;;;;;;;;;;;;;;5017849;28;19959;-43
2022/02/15 12:27:07;;;;;;;;;;;;;;;;;;5017037;28;19956;-41
2022/02/15 12:29:33;;;;;;;;;;;;;;;;;;5018027;28;19909;-40
2022/02/15 12:31:58;;;;;;;;;;;;;;;;;;5016198;28;19909;-40
2022/02/15 12:34:23;;;;;;;;;;;;;;;;;;5019291;28;20435;-42
2022/02/15 12:36:48;;;;;;;;;;;;;;;;;;5017249;28;19908;-43
2022/02/15 12:39:13;;;;;;;;;;;;;;;;;;5018309;28;19935;-41
2022/02/15 12:41:38;;;;;;;;;;;;;;;;;;5017510;28;20471;-43
2022/02/15 12:44:03;;;;;;;;;;;;;;;;;;5018889;28;19912;-41
2022/02/15 12:46:29;;;;;;;;;;;;;;;;;;5017699;28;19999;-40
2022/02/15 12:48:55;;;;;;;;;;;;;;;;;;5017735;28;20386;-41
2022/02/15 12:51:20;;;;;;;;;;;;;;;;;;5014384;28;19952;-41
2022/02/15 12:53:46;;;;;;;;;;;;;;;;;;5015499;28;19999;-41
2022/02/15 12:56:11;;;;;;;;;;;;;;;;;;5015528;28;19909;-39
2022/02/15 12:58:36;;;;;;;;;;;;;;;;;;5022160;28;19956;-39
2022/02/15 13:01:01;;;;;;;;;;;;;;;;;;5014636;28;20378;-38
2022/02/15 13:03:26;;;;;;;;;;;;;;;;;;5018509;28;19909;-40
2022/02/15 13:05:51;;;;;;;;;;;;;;;;;;5018298;28;20008;-41
2022/02/15 13:08:17;;;;;;;;;;;;;;;;;;5017012;28;19924;-40
2022/02/15 13:10:42;;;;;;;;;;;;;;;;;;5014932;28;20326;-41
2022/02/15 13:13:07;;;;;;;;;;;;;;;;;;5015526;28;20003;-39
2022/02/15 13:15:33;;;;;;;;;;;;;;;;;;5013950;28;19906;-44
2022/02/15 13:18:01;;;;;;;;;;;;;;;;;;5018950;28;19964;-41
2022/02/15 13:20:26;;;;;;;;;;;;;;;;;;5013546;28;20048;-40
2022/02/15 13:22:51;;;;;;;;;;;;;;;;;;5015433;28;20060;-40
2022/02/15 13:25:17;;;;;;;;;;;;;;;;;;5018113;28;19913;-40
2022/02/15 13:27:42;;;;;;;;;;;;;;;;;;5016963;28;19968;-39
2022/02/15 13:30:07;;;;;;;;;;;;;;;;;;5016514;28;19944;-41
2022/02/15 13:32:33;;;;;;;;;;;;;;;;;;5015957;28;19975;-39
2022/02/15 13:34:58;;;;;;;;;;;;;;;;;;5013337;28;19909;-44
2022/02/15 13:37:23;;;;;;;;;;;;;;;;;;5017868;28;19906;-43
2022/02/15 13:39:48;;;;;;;;;;;;;;;;;;5015220;28;19928;-41
2022/02/15 13:42:13;;;;;;;;;;;;;;;;;;5017876;28;19968;-48
2022/02/15 13:44:38;;;;;;;;;;;;;;;;;;5016095;28;19909;-40
2022/02/15 13:47:04;;;;;;;;;;;;;;;;;;5018181;28;20585;-42
2022/02/15 13:50:41;;;;;;;;;;;;;;;;;;5094384;27;19955;-40
2022/02/15 13:53:06;;;;;;;;;;;;;;;;;;5076244;28;19963;-40
2022/02/15 13:55:31;;;;;;;;;;;;;;;;;;5075098;28;20107;-39
2022/02/15 13:57:56;;;;;;;;;;;;;;;;;;5073988;28;19964;-43
2022/02/15 14:00:24;;;;;;;;;;;;;;;;;;5073181;28;19917;-41
2022/02/15 14:02:51;;;;;;;;;;;;;;;;;;5076778;28;19921;-38
2022/02/15 14:05:17;;;;;;;;;;;;;;;;;;5075638;28;20375;-41
2022/02/15 14:07:42;;;;;;;;;;;;;;;;;;5073505;28;19965;-39
2022/02/15 14:10:07;;;;;;;;;;;;;;;;;;5072585;28;19947;-44
2022/02/15 14:12:37;;;;;;;;;;;;;;;;;;5075742;28;19917;-42
2022/02/15 14:15:02;;;;;;;;;;;;;;;;;;5072968;28;19908;-41
2022/02/15 14:17:43;;;;;;;;;;;;;;;;;;5075662;28;20385;-39
2022/02/15 14:20:08;;;;;;;;;;;;;;;;;;5074524;28;19909;-41
2022/02/15 14:22:33;;;;;;;;;;;;;;;;;;5075911;28;20294;-41
2022/02/15 14:24:58;;;;;;;;;;;;;;;;;;5078114;28;20045;-42
2022/02/15 14:27:23;;;;;;;;;;;;;;;;;;5074293;28;20012;-39
2022/02/15 14:29:49;;;;;;;;;;;;;;;;;;5073925;28;20382;-41
2022/02/15 14:32:14;;;;;;;;;;;;;;;;;;5073453;28;20003;-42
2022/02/15 14:34:39;;;;;;;;;;;;;;;;;;5074023;28;19916;-38
2022/02/15 14:37:04;;;;;;;;;;;;;;;;;;5071149;28;20336;-39
2022/02/15 14:39:29;;;;;;;;;;;;;;;;;;5072595;28;19943;-39
2022/02/15 14:41:54;;;;;;;;;;;;;;;;;;5077440;28;20037;-41
2022/02/15 14:44:20;;;;;;;;;;;;;;;;;;5075219;28;19999;-44
2022/02/15 14:46:46;;;;;;;;;;;;;;;;;;5074876;28;19912;-42
2022/02/15 14:49:11;;;;;;;;;;;;;;;;;;5073440;28;19928;-42
2022/02/15 14:51:36;;;;;;;;;;;;;;;;;;5075132;28;20007;-41
2022/02/15 14:54:01;;;;;;;;;;;;;;;;;;5071496;28;20452;-41
2022/02/15 14:56:27;;;;;;;;;;;;;;;;;;5073835;28;19916;-43
2022/02/15 14:58:52;;;;;;;;;;;;;;;;;;5074543;28;19919;-42
2022/02/15 15:01:18;;;;;;;;;;;;;;;;;;5063087;28;19913;-39
2022/02/15 15:03:43;;;;;;;;;;;;;;;;;;5058985;28;19962;-40
2022/02/15 15:06:08;;;;;;;;;;;;;;;;;;5057830;28;19975;-40
2022/02/15 15:08:33;;;;;;;;;;;;;;;;;;5059575;28;20562;-39
2022/02/15 15:10:58;;;;;;;;;;;;;;;;;;5058495;28;19909;-44
2022/02/15 15:13:24;;;;;;;;;;;;;;;;;;5058852;28;20351;-39
2022/02/15 15:15:49;;;;;;;;;;;;;;;;;;5060059;28;19916;-39
2022/02/15 15:18:15;;;;;;;;;;;;;;;;;;5057743;28;19916;-40
2022/02/15 15:20:40;;;;;;;;;;;;;;;;;;5057561;28;20228;-42
2022/02/15 15:23:08;;;;;;;;;;;;;;;;;;5059077;28;20419;-45
2022/02/15 15:25:34;;;;;;;;;;;;;;;;;;5060944;28;19998;-41
2022/02/15 15:27:59;;;;;;;;;;;;;;;;;;5056295;28;19913;-40
2022/02/15 15:30:24;;;;;;;;;;;;;;;;;;5056319;28;20379;-40
2022/02/15 15:32:49;;;;;;;;;;;;;;;;;;5056288;28;20025;-45
2022/02/15 15:35:14;;;;;;;;;;;;;;;;;;5060646;28;19920;-39
2022/02/15 15:37:40;;;;;;;;;;;;;;;;;;5059666;28;20505;-43
2022/02/15 15:40:05;;;;;;;;;;;;;;;;;;5058341;28;19912;-40
2022/02/15 15:42:30;;;;;;;;;;;;;;;;;;5055419;28;20399;-41
2022/02/15 15:44:55;;;;;;;;;;;;;;;;;;5058353;28;19908;-41
2022/02/15 15:47:20;;;;;;;;;;;;;;;;;;5059585;28;20054;-42
2022/02/15 15:49:46;;;;;;;;;;;;;;;;;;5059493;28;19968;-43
2022/02/15 15:52:11;;;;;;;;;;;;;;;;;;5056762;28;19909;-43
2022/02/15 15:54:36;;;;;;;;;;;;;;;;;;5054766;28;19959;-40
2022/02/15 15:57:01;;;;;;;;;;;;;;;;;;5055419;28;20331;-40
2022/02/15 15:59:26;;;;;;;;;;;;;;;;;;5056019;28;19956;-43
2022/02/15 16:01:52;;;;;;;;;;;;;;;;;;5058490;28;19957;-39
2022/02/15 16:04:17;;;;;;;;;;;;;;;;;;5054791;28;20379;-38
2022/02/15 16:06:45;;;;;;;;;;;;;;;;;;5056521;28;20398;-38
2022/02/15 16:09:10;;;;;;;;;;;;;;;;;;5057133;28;19913;-37
2022/02/15 16:11:35;;;;;;;;;;;;;;;;;;5055891;28;19966;-37
2022/02/15 16:14:00;;;;;;;;;;;;;;;;;;5053328;28;19913;-37
2022/02/15 16:16:25;;;;;;;;;;;;;;;;;;5057055;28;20303;-38
2022/02/15 16:18:51;;;;;;;;;;;;;;;;;;5058562;28;19913;-45
2022/02/15 16:21:17;;;;;;;;;;;;;;;;;;5057533;28;19913;-44
2022/02/15 16:23:42;;;;;;;;;;;;;;;;;;5055925;28;20316;-47
2022/02/15 16:26:07;;;;;;;;;;;;;;;;;;5054716;28;20011;-42
2022/02/15 16:28:32;;;;;;;;;;;;;;;;;;5053853;28;19936;-43
2022/02/15 16:30:58;;;;;;;;;;;;;;;;;;5054619;28;19913;-43
2022/02/15 16:33:23;;;;;;;;;;;;;;;;;;5058055;28;19916;-43
2022/02/15 16:35:48;;;;;;;;;;;;;;;;;;5057372;28;20342;-43